Time;durP1;ratioP1;P1;durP2;ratioP2;P2;SDS_P1;SDS_P2;PMS_P1;PMS_P2;Temp;Humidity;BMP_temperature;BMP_pressure;BME280_temperature;BME280_humidity;BME280_pressure;Samples;Min_cycle;Max_cycle;Signal;HPM_P1;HPM_P2
2023/11/04 00:01:34;;;;;;;2.03;1.67;;;;;;;;;;5052991;28;20265;-67
2023/11/04 00:03:59;;;;;;;1.33;1.20;;;;;;;;;;5054799;28;20177;-67
2023/11/04 00:06:24;;;;;;;1.90;1.67;;;;;;;;;;5051433;28;20204;-65
2023/11/04 00:08:50;;;;;;;4.80;1.87;;;;;;;;;;5046865;28;20178;-67
2023/11/04 00:11:16;;;;;;;1.50;1.40;;;;;;;;;;5052015;28;20197;-67
2023/11/04 00:13:41;;;;;;;2.37;1.70;;;;;;;;;;5058699;28;22134;-67
2023/11/04 00:16:09;;;;;;;3.07;1.70;;;;;;;;;;5028029;28;20173;-66
2023/11/04 00:18:35;;;;;;;6.00;1.73;;;;;;;;;;5049069;28;20289;-65
2023/11/04 00:21:00;;;;;;;2.40;1.50;;;;;;;;;;5044079;28;20220;-66
2023/11/04 00:23:25;;;;;;;1.70;1.60;;;;;;;;;;5052950;28;20184;-67
2023/11/04 00:25:50;;;;;;;3.10;2.17;;;;;;;;;;5048400;28;20226;-67
2023/11/04 00:28:18;;;;;;;3.33;2.00;;;;;;;;;;5044079;28;20276;-67
2023/11/04 00:30:44;;;;;;;2.60;1.43;;;;;;;;;;5038502;28;21647;-66
2023/11/04 00:33:09;;;;;;;4.93;1.90;;;;;;;;;;5047647;28;20208;-67
2023/11/04 00:35:34;;;;;;;5.40;2.10;;;;;;;;;;5062183;28;20188;-67
2023/11/04 00:38:00;;;;;;;4.17;2.43;;;;;;;;;;5061343;28;20543;-67
2023/11/04 00:40:25;;;;;;;4.70;2.10;;;;;;;;;;5059782;28;20676;-67
2023/11/04 00:42:51;;;;;;;5.40;2.37;;;;;;;;;;5060310;28;20177;-68
2023/11/04 00:45:16;;;;;;;2.57;2.13;;;;;;;;;;5041199;28;20205;-67
2023/11/04 00:47:41;;;;;;;4.80;2.43;;;;;;;;;;5060480;28;20188;-68
2023/11/04 00:50:07;;;;;;;3.83;2.87;;;;;;;;;;5067039;28;20355;-67
2023/11/04 00:52:32;;;;;;;2.47;2.20;;;;;;;;;;5062693;28;20179;-66
2023/11/04 00:54:57;;;;;;;2.50;2.13;;;;;;;;;;5062887;28;20185;-67
2023/11/04 00:57:23;;;;;;;4.57;2.57;;;;;;;;;;5068900;28;20183;-66
2023/11/04 00:59:48;;;;;;;4.30;2.17;;;;;;;;;;5063674;28;20208;-65
2023/11/04 01:02:13;;;;;;;3.03;2.47;;;;;;;;;;5057845;28;20182;-67
2023/11/04 01:04:38;;;;;;;3.50;2.60;;;;;;;;;;5069364;28;20217;-65
2023/11/04 01:07:05;;;;;;;3.07;2.63;;;;;;;;;;5064831;28;20169;-67
2023/11/04 01:09:30;;;;;;;5.63;2.77;;;;;;;;;;5072899;28;20177;-67
2023/11/04 01:11:55;;;;;;;6.07;2.63;;;;;;;;;;5065480;28;20173;-67
2023/11/04 01:14:20;;;;;;;6.60;3.13;;;;;;;;;;5061676;28;20178;-67
2023/11/04 01:16:45;;;;;;;4.43;2.90;;;;;;;;;;5061962;28;20729;-65
2023/11/04 01:19:11;;;;;;;5.83;2.87;;;;;;;;;;5047512;28;20268;-67
2023/11/04 01:21:36;;;;;;;2.77;2.50;;;;;;;;;;5067565;28;20217;-67
2023/11/04 01:24:01;;;;;;;4.40;2.93;;;;;;;;;;5061622;28;20184;-67
2023/11/04 01:26:26;;;;;;;7.13;2.90;;;;;;;;;;5059664;28;20221;-67
2023/11/04 01:28:52;;;;;;;3.50;2.63;;;;;;;;;;5059196;28;20177;-67
2023/11/04 01:31:17;;;;;;;3.40;2.63;;;;;;;;;;5042224;28;20227;-66
2023/11/04 01:33:42;;;;;;;4.50;2.70;;;;;;;;;;5060693;28;20185;-66
2023/11/04 01:36:07;;;;;;;4.00;2.83;;;;;;;;;;5049337;28;20180;-67
2023/11/04 01:38:33;;;;;;;7.63;3.17;;;;;;;;;;5044118;28;20184;-67
2023/11/04 01:40:58;;;;;;;5.40;2.93;;;;;;;;;;5058371;28;20201;-67
2023/11/04 01:43:24;;;;;;;4.30;2.93;;;;;;;;;;5059250;28;20181;-67
2023/11/04 01:45:53;;;;;;;8.90;3.17;;;;;;;;;;5046126;28;20659;-66
2023/11/04 01:48:19;;;;;;;4.73;3.03;;;;;;;;;;5053654;28;20189;-66
2023/11/04 01:50:44;;;;;;;3.57;2.53;;;;;;;;;;5058870;28;20189;-66
2023/11/04 01:53:09;;;;;;;4.53;2.90;;;;;;;;;;5060426;28;20184;-67
2023/11/04 01:55:35;;;;;;;6.90;3.37;;;;;;;;;;5062265;28;22059;-67
2023/11/04 01:58:01;;;;;;;6.17;3.23;;;;;;;;;;5050760;28;20220;-67
2023/11/04 02:00:26;;;;;;;4.60;3.20;;;;;;;;;;5054340;28;20225;-68
2023/11/04 02:02:52;;;;;;;3.57;3.23;;;;;;;;;;5058353;28;20721;-68
2023/11/04 02:05:18;;;;;;;5.03;3.40;;;;;;;;;;5039518;28;20205;-68
2023/11/04 02:07:43;;;;;;;3.93;3.17;;;;;;;;;;5059898;28;20173;-68
2023/11/04 02:10:09;;;;;;;6.30;3.30;;;;;;;;;;5058858;28;20698;-69
2023/11/04 02:12:34;;;;;;;3.67;3.03;;;;;;;;;;5059055;28;20193;-68
2023/11/04 02:14:59;;;;;;;4.43;3.63;;;;;;;;;;5060525;28;20180;-68
2023/11/04 02:17:24;;;;;;;6.33;3.73;;;;;;;;;;5056043;28;20173;-68
2023/11/04 02:19:50;;;;;;;4.67;3.80;;;;;;;;;;5039899;28;20721;-68
2023/11/04 02:22:15;;;;;;;4.63;3.37;;;;;;;;;;5062352;28;20662;-68
2023/11/04 02:24:40;;;;;;;4.70;3.20;;;;;;;;;;5062780;28;20185;-68
2023/11/04 02:27:06;;;;;;;5.00;3.47;;;;;;;;;;5062140;28;20173;-69
2023/11/04 02:29:31;;;;;;;10.00;4.40;;;;;;;;;;5056578;28;20180;-68
2023/11/04 02:31:56;;;;;;;4.20;3.37;;;;;;;;;;5053041;28;20199;-68
2023/11/04 02:34:21;;;;;;;4.63;3.17;;;;;;;;;;5059441;28;20180;-68
2023/11/04 02:36:46;;;;;;;7.07;3.80;;;;;;;;;;5063496;28;20177;-68
2023/11/04 02:39:13;;;;;;;5.07;3.30;;;;;;;;;;5055888;28;20267;-68
2023/11/04 02:41:38;;;;;;;6.50;3.30;;;;;;;;;;5059930;28;20229;-68
2023/11/04 02:44:04;;;;;;;4.47;3.67;;;;;;;;;;5061731;28;20213;-68
2023/11/04 02:46:29;;;;;;;5.70;3.60;;;;;;;;;;5062527;28;20197;-68
2023/11/04 02:48:54;;;;;;;6.67;3.87;;;;;;;;;;5052723;28;20643;-68
2023/11/04 02:51:20;;;;;;;9.60;4.93;;;;;;;;;;5065387;28;20263;-68
2023/11/04 02:53:45;;;;;;;6.03;4.13;;;;;;;;;;5060553;28;20173;-68
2023/11/04 02:56:13;;;;;;;5.50;3.90;;;;;;;;;;5055925;28;20174;-69
2023/11/04 02:58:39;;;;;;;6.63;4.10;;;;;;;;;;5065449;28;20186;-68
2023/11/04 03:01:04;;;;;;;10.07;4.30;;;;;;;;;;5040608;28;20250;-68
2023/11/04 03:03:29;;;;;;;7.67;4.30;;;;;;;;;;5058940;28;20177;-68
2023/11/04 03:05:54;;;;;;;6.10;4.00;;;;;;;;;;5060113;28;20267;-68
2023/11/04 03:08:20;;;;;;;7.97;5.03;;;;;;;;;;5057156;28;20180;-68
2023/11/04 03:10:46;;;;;;;8.10;4.37;;;;;;;;;;5052928;28;20228;-68
2023/11/04 03:13:12;;;;;;;7.73;4.80;;;;;;;;;;5066658;28;20697;-68
2023/11/04 03:15:38;;;;;;;4.97;4.13;;;;;;;;;;5058374;28;20185;-68
2023/11/04 03:18:03;;;;;;;4.87;4.27;;;;;;;;;;5061318;28;20207;-68
2023/11/04 03:20:28;;;;;;;5.27;4.03;;;;;;;;;;5067452;28;20330;-68
2023/11/04 03:22:53;;;;;;;5.87;3.87;;;;;;;;;;5059024;28;20187;-68
2023/11/04 03:25:20;;;;;;;4.57;3.33;;;;;;;;;;5058471;28;20197;-68
2023/11/04 03:27:45;;;;;;;7.33;3.63;;;;;;;;;;5065218;28;20186;-68
2023/11/04 03:30:11;;;;;;;6.80;4.07;;;;;;;;;;5057542;28;20673;-69
2023/11/04 03:32:36;;;;;;;5.93;4.00;;;;;;;;;;5055324;28;20177;-68
2023/11/04 03:35:01;;;;;;;8.53;3.40;;;;;;;;;;5056812;28;20177;-68
2023/11/04 03:37:26;;;;;;;6.30;3.80;;;;;;;;;;5061649;28;20191;-68
2023/11/04 03:39:52;;;;;;;4.47;3.53;;;;;;;;;;5040746;28;20229;-68
2023/11/04 03:42:18;;;;;;;4.40;4.00;;;;;;;;;;5041697;28;20188;-68
2023/11/04 03:44:43;;;;;;;5.27;3.20;;;;;;;;;;5060188;28;20315;-68
2023/11/04 03:47:08;;;;;;;7.97;3.57;;;;;;;;;;5064858;28;20199;-68
2023/11/04 03:49:33;;;;;;;6.00;3.40;;;;;;;;;;5064449;28;20182;-68
2023/11/04 03:51:59;;;;;;;7.23;4.07;;;;;;;;;;5065010;28;20180;-68
2023/11/04 03:54:25;;;;;;;6.23;3.47;;;;;;;;;;5056430;28;20242;-68
2023/11/04 03:56:50;;;;;;;5.20;3.70;;;;;;;;;;5062395;28;20659;-68
2023/11/04 03:59:15;;;;;;;5.70;3.57;;;;;;;;;;5052358;28;20188;-69
2023/11/04 04:01:40;;;;;;;6.33;3.67;;;;;;;;;;5056515;28;20522;-68
2023/11/04 04:04:06;;;;;;;5.47;3.60;;;;;;;;;;5056559;28;20820;-69
2023/11/04 04:06:32;;;;;;;4.97;3.33;;;;;;;;;;5049213;28;20239;-68
2023/11/04 04:08:57;;;;;;;5.23;3.43;;;;;;;;;;5060737;28;20177;-68
2023/11/04 04:11:22;;;;;;;5.37;3.47;;;;;;;;;;5059117;28;20231;-68
2023/11/04 04:13:48;;;;;;;8.33;3.87;;;;;;;;;;5062499;28;20618;-68
2023/11/04 04:16:13;;;;;;;4.57;2.97;;;;;;;;;;5062982;28;20180;-68
2023/11/04 04:18:39;;;;;;;6.23;3.73;;;;;;;;;;5060027;28;20268;-68
2023/11/04 04:21:05;;;;;;;4.80;3.57;;;;;;;;;;5062563;28;20575;-68
2023/11/04 04:23:30;;;;;;;5.87;3.50;;;;;;;;;;5065768;28;20542;-68
2023/11/04 04:25:55;;;;;;;4.07;3.37;;;;;;;;;;5065877;28;20296;-68
2023/11/04 04:28:20;;;;;;;5.50;3.47;;;;;;;;;;5067211;28;20193;-68
2023/11/04 04:30:46;;;;;;;7.20;4.33;;;;;;;;;;5064680;28;20197;-68
2023/11/04 04:33:11;;;;;;;3.57;3.27;;;;;;;;;;5063213;28;20174;-68
2023/11/04 04:35:36;;;;;;;5.50;3.83;;;;;;;;;;5062551;28;20391;-68
2023/11/04 04:38:01;;;;;;;8.50;4.10;;;;;;;;;;5059281;28;20207;-68
2023/11/04 04:40:27;;;;;;;9.70;4.07;;;;;;;;;;5066440;28;20248;-68
2023/11/04 04:42:52;;;;;;;8.40;4.60;;;;;;;;;;5059107;28;20224;-68
2023/11/04 04:45:18;;;;;;;7.03;3.73;;;;;;;;;;5070767;28;20205;-68
2023/11/04 04:47:43;;;;;;;7.13;4.07;;;;;;;;;;5060523;28;20189;-68
2023/11/04 04:50:08;;;;;;;8.03;3.97;;;;;;;;;;5062641;28;20284;-68
2023/11/04 04:52:34;;;;;;;5.27;4.70;;;;;;;;;;5046154;28;20572;-68
2023/11/04 04:54:59;;;;;;;8.30;3.70;;;;;;;;;;5068347;28;20192;-68
2023/11/04 04:57:25;;;;;;;6.67;4.30;;;;;;;;;;5056561;28;20659;-68
2023/11/04 04:59:50;;;;;;;5.83;3.77;;;;;;;;;;5055741;28;20204;-68
2023/11/04 05:02:16;;;;;;;5.40;4.40;;;;;;;;;;5048450;28;20669;-68
2023/11/04 05:04:45;;;;;;;9.60;5.03;;;;;;;;;;5061515;28;20268;-68
2023/11/04 05:07:10;;;;;;;9.57;5.43;;;;;;;;;;5062519;28;20600;-68
2023/11/04 05:09:35;;;;;;;7.53;4.57;;;;;;;;;;5068687;28;20204;-68
2023/11/04 05:12:00;;;;;;;4.17;3.77;;;;;;;;;;5068672;28;20260;-68
2023/11/04 05:14:26;;;;;;;5.67;4.40;;;;;;;;;;5060948;28;20525;-68
2023/11/04 05:16:51;;;;;;;6.97;4.00;;;;;;;;;;5065617;28;20648;-69
2023/11/04 05:19:16;;;;;;;7.17;4.30;;;;;;;;;;5063093;28;20193;-67
2023/11/04 05:21:41;;;;;;;7.77;3.40;;;;;;;;;;5062896;28;20212;-67
2023/11/04 05:24:08;;;;;;;5.10;4.37;;;;;;;;;;5066909;28;20708;-68
2023/11/04 05:26:33;;;;;;;8.87;5.07;;;;;;;;;;5066478;28;20202;-68
2023/11/04 05:28:59;;;;;;;7.00;4.10;;;;;;;;;;5058024;28;20226;-67
2023/11/04 05:31:24;;;;;;;5.80;4.13;;;;;;;;;;5063038;28;20197;-67
2023/11/04 05:33:49;;;;;;;8.17;5.07;;;;;;;;;;5059078;28;20204;-66
2023/11/04 05:36:18;;;;;;;6.17;4.40;;;;;;;;;;5057050;28;20182;-67
2023/11/04 05:38:43;;;;;;;7.80;4.33;;;;;;;;;;5059522;28;20181;-67
2023/11/04 05:41:08;;;;;;;5.80;4.40;;;;;;;;;;5060012;28;20211;-69
2023/11/04 05:43:35;;;;;;;8.13;4.73;;;;;;;;;;5066566;28;20333;-67
2023/11/04 05:46:02;;;;;;;13.73;5.03;;;;;;;;;;5048889;28;20211;-68
2023/11/04 05:48:27;;;;;;;8.10;4.07;;;;;;;;;;5045781;28;20259;-67
2023/11/04 05:50:52;;;;;;;8.87;4.37;;;;;;;;;;5061234;28;20220;-67
2023/11/04 05:53:17;;;;;;;8.57;4.43;;;;;;;;;;5058968;28;20177;-67
2023/11/04 05:55:43;;;;;;;7.67;5.20;;;;;;;;;;5060988;28;20181;-67
2023/11/04 05:58:08;;;;;;;7.37;4.03;;;;;;;;;;5045193;28;20181;-67
2023/11/04 06:00:33;;;;;;;8.43;4.23;;;;;;;;;;5057900;28;20197;-67
2023/11/04 06:02:58;;;;;;;5.50;3.57;;;;;;;;;;5060846;28;20192;-68
2023/11/04 06:05:24;;;;;;;6.00;3.83;;;;;;;;;;5057355;28;20229;-67
2023/11/04 06:07:49;;;;;;;10.00;3.33;;;;;;;;;;5043710;28;20194;-67
2023/11/04 06:10:15;;;;;;;7.33;3.33;;;;;;;;;;5039195;28;20254;-67
2023/11/04 06:12:41;;;;;;;8.13;3.70;;;;;;;;;;5047510;28;20180;-67
2023/11/04 06:15:06;;;;;;;7.23;3.53;;;;;;;;;;5066513;28;20180;-67
2023/11/04 06:17:31;;;;;;;4.57;3.10;;;;;;;;;;5060257;28;20177;-68
2023/11/04 06:19:57;;;;;;;5.03;2.73;;;;;;;;;;5062596;28;20239;-68
2023/11/04 06:22:22;;;;;;;11.67;3.47;;;;;;;;;;5061728;28;20176;-68
2023/11/04 06:24:48;;;;;;;10.00;3.20;;;;;;;;;;5064725;28;20295;-68
2023/11/04 06:27:13;;;;;;;12.13;3.50;;;;;;;;;;5052629;28;20252;-68
2023/11/04 06:29:38;;;;;;;4.87;2.77;;;;;;;;;;5056696;28;20767;-68
2023/11/04 06:32:03;;;;;;;3.53;2.90;;;;;;;;;;5063654;28;20197;-67
2023/11/04 06:34:29;;;;;;;4.43;2.90;;;;;;;;;;5058070;28;20231;-68
2023/11/04 06:36:54;;;;;;;7.27;3.53;;;;;;;;;;5063006;28;20566;-68
2023/11/04 06:39:19;;;;;;;5.80;2.80;;;;;;;;;;5063444;28;20169;-67
2023/11/04 06:41:45;;;;;;;6.43;2.87;;;;;;;;;;5056862;28;20772;-68
2023/11/04 06:44:10;;;;;;;11.50;3.00;;;;;;;;;;5053453;28;20911;-68
2023/11/04 06:46:35;;;;;;;4.27;2.93;;;;;;;;;;5059918;28;20223;-68
2023/11/04 06:49:01;;;;;;;5.47;3.43;;;;;;;;;;5057414;28;20184;-68
2023/11/04 06:51:26;;;;;;;6.47;3.30;;;;;;;;;;5057401;28;20259;-69
2023/11/04 06:53:55;;;;;;;9.40;3.87;;;;;;;;;;5069220;28;20199;-68
2023/11/04 06:56:24;;;;;;;5.67;3.13;;;;;;;;;;5062054;28;20173;-69
2023/11/04 06:58:49;;;;;;;6.53;2.93;;;;;;;;;;5043522;28;20215;-69
2023/11/04 07:01:14;;;;;;;8.37;3.40;;;;;;;;;;5054323;28;20225;-68
2023/11/04 07:03:40;;;;;;;4.37;2.70;;;;;;;;;;5065935;28;20185;-68
2023/11/04 07:06:10;;;;;;;6.53;3.20;;;;;;;;;;5060889;28;20208;-68
2023/11/04 07:08:36;;;;;;;7.90;3.83;;;;;;;;;;5058686;28;20185;-69
2023/11/04 07:11:01;;;;;;;10.43;3.43;;;;;;;;;;5059637;28;20200;-68
2023/11/04 07:13:26;;;;;;;11.20;3.63;;;;;;;;;;5047230;28;20185;-69
2023/11/04 07:15:52;;;;;;;8.70;3.00;;;;;;;;;;5063971;28;20667;-68
2023/11/04 07:18:17;;;;;;;5.30;2.57;;;;;;;;;;5046091;28;20188;-69
2023/11/04 07:20:44;;;;;;;5.93;2.50;;;;;;;;;;5059308;28;20212;-68
2023/11/04 07:23:12;;;;;;;6.87;3.13;;;;;;;;;;5041217;28;20674;-68
2023/11/04 07:25:38;;;;;;;7.80;2.30;;;;;;;;;;5043503;28;20197;-69
2023/11/04 07:28:03;;;;;;;7.73;2.17;;;;;;;;;;5067728;28;20184;-68
2023/11/04 07:30:28;;;;;;;6.30;2.83;;;;;;;;;;5063900;28;20197;-68
2023/11/04 07:32:54;;;;;;;9.60;2.53;;;;;;;;;;5058212;28;20178;-67
2023/11/04 07:35:19;;;;;;;4.43;2.17;;;;;;;;;;5057627;28;20191;-68
2023/11/04 07:37:44;;;;;;;8.27;2.50;;;;;;;;;;5058186;28;20663;-67
2023/11/04 07:40:10;;;;;;;7.25;2.97;;;;;;;;;;5058721;28;20209;-67
2023/11/04 07:42:35;;;;;;;6.10;2.37;;;;;;;;;;5057960;28;20181;-67
2023/11/04 07:45:01;;;;;;;3.95;1.85;;;;;;;;;;5061614;28;20647;-67
2023/11/04 07:47:26;;;;;;;5.13;1.93;;;;;;;;;;5061040;28;20177;-67
2023/11/04 07:49:51;;;;;;;10.23;2.15;;;;;;;;;;5043969;28;20299;-67
2023/11/04 07:52:16;;;;;;;8.83;1.87;;;;;;;;;;5057053;28;20533;-67
2023/11/04 07:54:42;;;;;;;7.90;1.93;;;;;;;;;;5057596;28;20173;-67
2023/11/04 07:57:07;;;;;;;6.43;1.85;;;;;;;;;;5058045;28;20479;-68
2023/11/04 07:59:32;;;;;;;7.23;2.00;;;;;;;;;;5058776;28;20716;-65
2023/11/04 08:01:58;;;;;;;2.55;1.58;;;;;;;;;;5041898;28;20196;-67
2023/11/04 08:04:26;;;;;;;3.72;1.90;;;;;;;;;;5058443;28;20708;-66
2023/11/04 08:06:51;;;;;;;6.85;1.67;;;;;;;;;;5059463;28;20209;-66
2023/11/04 08:09:16;;;;;;;6.78;1.48;;;;;;;;;;5059427;28;20180;-66
2023/11/04 08:11:41;;;;;;;2.78;1.40;;;;;;;;;;5053038;28;20615;-67
2023/11/04 08:14:07;;;;;;;3.13;1.50;;;;;;;;;;5057669;28;20184;-67
2023/11/04 08:16:32;;;;;;;18.80;2.72;;;;;;;;;;5059297;28;20181;-66
2023/11/04 08:18:57;;;;;;;3.25;1.67;;;;;;;;;;5064324;28;20181;-65
2023/11/04 08:21:23;;;;;;;3.08;1.35;;;;;;;;;;5060696;28;20203;-67
2023/11/04 08:23:48;;;;;;;5.40;1.65;;;;;;;;;;5063682;28;20184;-67
2023/11/04 08:26:14;;;;;;;8.63;1.70;;;;;;;;;;5065189;28;20296;-65
2023/11/04 08:28:39;;;;;;;4.80;1.37;;;;;;;;;;5062090;28;20547;-67
2023/11/04 08:31:04;;;;;;;3.63;1.30;;;;;;;;;;5060133;28;20201;-67
2023/11/04 08:33:29;;;;;;;4.47;1.70;;;;;;;;;;5059378;28;20659;-67
2023/11/04 08:35:55;;;;;;;4.27;1.20;;;;;;;;;;5057186;28;20191;-67
2023/11/04 08:38:21;;;;;;;4.30;2.17;;;;;;;;;;5058337;28;20184;-66
2023/11/04 08:40:46;;;;;;;3.67;1.60;;;;;;;;;;5060306;28;20250;-67
2023/11/04 08:43:12;;;;;;;7.23;2.13;;;;;;;;;;5058507;28;20211;-67
2023/11/04 08:45:37;;;;;;;8.80;1.90;;;;;;;;;;5058033;28;20702;-67
2023/11/04 08:48:02;;;;;;;6.85;1.73;;;;;;;;;;5060186;28;20169;-65
2023/11/04 08:50:28;;;;;;;4.57;1.27;;;;;;;;;;5054606;28;20619;-67
2023/11/04 08:52:53;;;;;;;6.27;1.73;;;;;;;;;;5039013;28;20200;-67
2023/11/04 08:55:19;;;;;;;7.72;1.70;;;;;;;;;;5062781;28;20569;-68
2023/11/04 08:57:44;;;;;;;4.35;1.50;;;;;;;;;;5063386;28;20178;-67
2023/11/04 09:00:11;;;;;;;4.10;1.50;;;;;;;;;;5064501;28;20196;-67
2023/11/04 09:02:36;;;;;;;3.38;1.35;;;;;;;;;;5055118;28;20186;-68
2023/11/04 09:05:02;;;;;;;6.07;1.52;;;;;;;;;;5069579;28;20230;-66
2023/11/04 09:07:27;;;;;;;7.07;1.27;;;;;;;;;;5063656;28;20201;-68
2023/11/04 09:09:52;;;;;;;5.63;1.40;;;;;;;;;;5072331;28;20192;-67
2023/11/04 09:12:17;;;;;;;4.85;1.70;;;;;;;;;;5067507;28;20161;-67
2023/11/04 09:14:43;;;;;;;4.88;1.98;;;;;;;;;;5067865;28;20573;-68
2023/11/04 09:17:08;;;;;;;4.55;1.55;;;;;;;;;;5064917;28;20174;-68
2023/11/04 09:19:33;;;;;;;5.82;1.73;;;;;;;;;;5058743;28;20213;-67
2023/11/04 09:21:58;;;;;;;4.15;1.90;;;;;;;;;;5058580;28;20184;-66
2023/11/04 09:24:23;;;;;;;3.72;1.50;;;;;;;;;;5070109;28;20248;-67
2023/11/04 09:26:49;;;;;;;3.10;1.25;;;;;;;;;;5062184;28;20197;-67
2023/11/04 09:29:14;;;;;;;4.15;1.55;;;;;;;;;;5060162;28;20181;-67
2023/11/04 09:31:39;;;;;;;3.55;1.60;;;;;;;;;;5060473;28;20652;-67
2023/11/04 09:34:07;;;;;;;3.35;1.80;;;;;;;;;;5054772;28;20541;-67
2023/11/04 09:36:32;;;;;;;3.92;1.33;;;;;;;;;;5054591;28;20193;-67
2023/11/04 09:38:57;;;;;;;3.45;1.95;;;;;;;;;;5059960;28;20180;-64
2023/11/04 09:41:22;;;;;;;3.85;2.13;;;;;;;;;;5059832;28;20197;-64
2023/11/04 09:43:48;;;;;;;4.75;1.50;;;;;;;;;;5060140;28;20188;-65
2023/11/04 09:46:13;;;;;;;2.40;1.45;;;;;;;;;;5060709;28;20205;-65
2023/11/04 09:48:38;;;;;;;5.10;1.30;;;;;;;;;;5056501;28;20181;-65
2023/11/04 09:51:07;;;;;;;1.52;1.17;;;;;;;;;;5062394;28;20604;-65
2023/11/04 09:53:32;;;;;;;3.83;1.25;;;;;;;;;;5038420;28;20264;-67
2023/11/04 09:55:58;;;;;;;7.82;1.88;;;;;;;;;;5060992;28;20280;-66
2023/11/04 09:58:23;;;;;;;6.55;1.15;;;;;;;;;;5059716;28;20195;-65
2023/11/04 10:00:51;;;;;;;4.07;1.27;;;;;;;;;;5061676;28;20205;-66
2023/11/04 10:03:16;;;;;;;3.90;1.13;;;;;;;;;;5058005;28;20238;-66
2023/11/04 10:05:41;;;;;;;1.92;0.98;;;;;;;;;;5052540;28;20836;-67
2023/11/04 10:08:07;;;;;;;7.97;1.38;;;;;;;;;;5057348;28;20252;-66
2023/11/04 10:10:33;;;;;;;4.60;1.60;;;;;;;;;;5044337;28;20250;-66
2023/11/04 10:12:58;;;;;;;4.35;1.30;;;;;;;;;;5060654;28;20174;-67
2023/11/04 10:15:23;;;;;;;2.97;0.80;;;;;;;;;;5065032;28;20706;-67
2023/11/04 10:17:49;;;;;;;5.38;1.10;;;;;;;;;;5056219;28;20182;-66
2023/11/04 10:20:15;;;;;;;2.95;1.33;;;;;;;;;;5058556;28;20608;-67
2023/11/04 10:22:40;;;;;;;5.32;1.23;;;;;;;;;;5054348;28;20563;-67
2023/11/04 10:25:07;;;;;;;5.90;1.23;;;;;;;;;;5062645;28;20177;-66
2023/11/04 10:27:32;;;;;;;1.20;0.80;;;;;;;;;;5063385;28;20256;-67
2023/11/04 10:29:58;;;;;;;3.78;1.08;;;;;;;;;;5041134;28;20686;-66
2023/11/04 10:32:27;;;;;;;4.45;1.05;;;;;;;;;;5056972;28;20169;-66
2023/11/04 10:34:54;;;;;;;3.50;1.35;;;;;;;;;;5056575;28;20169;-65
2023/11/04 10:37:20;;;;;;;4.32;1.30;;;;;;;;;;5060075;28;20219;-66
2023/11/04 10:39:47;;;;;;;4.50;1.40;;;;;;;;;;5057203;28;20213;-66
2023/11/04 10:42:13;;;;;;;3.53;1.00;;;;;;;;;;5055208;28;20321;-67
2023/11/04 10:44:40;;;;;;;2.42;1.25;;;;;;;;;;5057440;28;20185;-66
2023/11/04 10:47:09;;;;;;;1.15;1.02;;;;;;;;;;5056420;28;20241;-67
2023/11/04 10:49:49;;;;;;;3.03;1.05;;;;;;;;;;5059079;28;20255;-67
2023/11/04 10:52:18;;;;;;;2.42;1.45;;;;;;;;;;5043074;28;20179;-66
2023/11/04 10:54:55;;;;;;;6.13;1.13;;;;;;;;;;5053622;28;20268;-66
2023/11/04 10:57:20;;;;;;;7.25;1.92;;;;;;;;;;5062048;28;20181;-67
2023/11/04 11:00:05;;;;;;;6.68;1.10;;;;;;;;;;5064634;28;20213;-67
2023/11/04 11:02:30;;;;;;;3.58;1.50;;;;;;;;;;5063870;28;20177;-67
2023/11/04 11:04:57;;;;;;;4.10;1.40;;;;;;;;;;5067270;28;20187;-67
2023/11/04 11:07:22;;;;;;;8.98;1.83;;;;;;;;;;5065875;28;20253;-67
2023/11/04 11:09:47;;;;;;;2.25;1.02;;;;;;;;;;5056412;28;20687;-66
2023/11/04 11:12:16;;;;;;;6.30;1.38;;;;;;;;;;5054495;28;20530;-67
2023/11/04 11:14:41;;;;;;;3.63;1.00;;;;;;;;;;5058185;28;20170;-67
2023/11/04 11:17:07;;;;;;;3.80;1.00;;;;;;;;;;5054788;28;20176;-67
2023/11/04 11:19:33;;;;;;;7.05;1.00;;;;;;;;;;5060281;28;20686;-67
2023/11/04 11:21:59;;;;;;;5.25;1.20;;;;;;;;;;5066267;28;20169;-67
2023/11/04 11:24:25;;;;;;;3.92;1.08;;;;;;;;;;5043153;28;20192;-66
2023/11/04 11:26:51;;;;;;;1.63;0.90;;;;;;;;;;5053072;28;20221;-66
2023/11/04 11:29:20;;;;;;;1.25;0.85;;;;;;;;;;5062840;28;20180;-67
2023/11/04 11:31:46;;;;;;;4.40;1.27;;;;;;;;;;5059913;28;20202;-67
2023/11/04 11:34:11;;;;;;;3.20;1.20;;;;;;;;;;5061966;28;20177;-67
2023/11/04 11:36:36;;;;;;;7.68;2.22;;;;;;;;;;5062283;28;20557;-67
2023/11/04 11:39:02;;;;;;;4.75;1.02;;;;;;;;;;5054685;28;20186;-66
2023/11/04 11:41:28;;;;;;;5.03;1.20;;;;;;;;;;5064271;28;20231;-67
2023/11/04 11:43:53;;;;;;;2.17;0.70;;;;;;;;;;5060809;28;20548;-67
2023/11/04 11:46:18;;;;;;;4.57;0.95;;;;;;;;;;5036888;28;20654;-65
2023/11/04 11:48:45;;;;;;;2.23;1.13;;;;;;;;;;5030383;28;20798;-66
2023/11/04 11:51:11;;;;;;;5.07;0.90;;;;;;;;;;5052784;28;20740;-66
2023/11/04 11:53:37;;;;;;;3.10;1.00;;;;;;;;;;5046236;28;20185;-65
2023/11/04 11:56:02;;;;;;;3.78;0.70;;;;;;;;;;5048026;28;20652;-66
2023/11/04 11:58:28;;;;;;;6.40;1.58;;;;;;;;;;5047289;28;20234;-65
2023/11/04 12:00:58;;;;;;;0.75;0.50;;;;;;;;;;5046549;28;20802;-66
2023/11/04 12:03:23;;;;;;;5.70;0.55;;;;;;;;;;5047370;28;20186;-65
2023/11/04 12:05:49;;;;;;;4.32;0.88;;;;;;;;;;5047914;28;20201;-66
2023/11/04 12:08:14;;;;;;;6.05;0.88;;;;;;;;;;5046420;28;20184;-65
2023/11/04 12:10:43;;;;;;;4.78;0.77;;;;;;;;;;5047244;28;20223;-65
2023/11/04 12:13:08;;;;;;;3.13;0.82;;;;;;;;;;5046785;28;20722;-65
2023/11/04 12:15:35;;;;;;;5.18;1.50;;;;;;;;;;5047507;28;20207;-65
2023/11/04 12:18:03;;;;;;;3.45;0.82;;;;;;;;;;5047845;28;20527;-65
2023/11/04 12:20:29;;;;;;;1.23;0.50;;;;;;;;;;5049433;28;20335;-65
2023/11/04 12:22:56;;;;;;;2.03;0.85;;;;;;;;;;5045308;28;20577;-66
2023/11/04 12:25:21;;;;;;;2.88;0.80;;;;;;;;;;5050247;28;20201;-66
2023/11/04 12:27:47;;;;;;;3.37;0.73;;;;;;;;;;5057907;28;20549;-67
2023/11/04 12:30:14;;;;;;;1.83;0.83;;;;;;;;;;5068653;28;20198;-66
2023/11/04 12:32:40;;;;;;;2.40;0.70;;;;;;;;;;5063842;28;20189;-66
2023/11/04 12:35:05;;;;;;;3.87;1.00;;;;;;;;;;5050087;28;21826;-67
2023/11/04 12:37:30;;;;;;;3.50;0.87;;;;;;;;;;5051043;28;20670;-66
2023/11/04 12:39:55;;;;;;;3.73;1.30;;;;;;;;;;5052925;28;20213;-67
2023/11/04 12:42:20;;;;;;;2.77;1.30;;;;;;;;;;5049762;28;20184;-66
2023/11/04 12:44:49;;;;;;;3.73;0.87;;;;;;;;;;5049682;28;20181;-67
2023/11/04 12:47:14;;;;;;;3.60;1.47;;;;;;;;;;5050680;28;20222;-66
2023/11/04 12:49:39;;;;;;;1.17;0.70;;;;;;;;;;5056671;28;20653;-67
2023/11/04 12:52:06;;;;;;;3.57;0.90;;;;;;;;;;5049996;28;20185;-66
2023/11/04 12:54:32;;;;;;;3.60;1.10;;;;;;;;;;5049231;28;22061;-67
2023/11/04 12:56:57;;;;;;;2.97;0.90;;;;;;;;;;5040167;28;20181;-66
2023/11/04 12:59:23;;;;;;;3.40;0.73;;;;;;;;;;5066174;28;20184;-67
2023/11/04 13:01:48;;;;;;;3.17;0.97;;;;;;;;;;5063099;28;20707;-66
2023/11/04 13:04:13;;;;;;;2.33;0.70;;;;;;;;;;5042791;28;20184;-66
2023/11/04 13:06:38;;;;;;;2.27;0.77;;;;;;;;;;5061162;28;20209;-66
2023/11/04 13:09:04;;;;;;;2.87;0.87;;;;;;;;;;5061456;28;20177;-67
2023/11/04 13:11:30;;;;;;;2.87;1.03;;;;;;;;;;5068383;28;20317;-67
2023/11/04 13:13:55;;;;;;;2.87;0.93;;;;;;;;;;5059869;28;20173;-67
2023/11/04 13:16:20;;;;;;;1.20;0.80;;;;;;;;;;5043883;28;20219;-65
2023/11/04 13:18:45;;;;;;;3.47;1.00;;;;;;;;;;5062356;28;20992;-67
2023/11/04 13:21:10;;;;;;;7.93;1.23;;;;;;;;;;5060224;28;20208;-64
2023/11/04 13:23:36;;;;;;;4.03;0.80;;;;;;;;;;5062526;28;20182;-65
2023/11/04 13:26:01;;;;;;;1.43;0.60;;;;;;;;;;5063026;28;20193;-66
2023/11/04 13:28:27;;;;;;;2.83;0.90;;;;;;;;;;5048621;28;20169;-65
2023/11/04 13:30:52;;;;;;;3.03;0.80;;;;;;;;;;5049856;28;20675;-65
2023/11/04 13:33:17;;;;;;;3.57;1.10;;;;;;;;;;5049328;28;20174;-66
2023/11/04 13:35:42;;;;;;;1.83;0.90;;;;;;;;;;5031942;28;20377;-66
2023/11/04 13:38:08;;;;;;;0.73;0.57;;;;;;;;;;5048291;28;20191;-66
2023/11/04 13:40:33;;;;;;;1.50;0.77;;;;;;;;;;5057169;28;20209;-67
2023/11/04 13:42:59;;;;;;;4.37;1.30;;;;;;;;;;5059020;28;20186;-67
2023/11/04 13:45:25;;;;;;;1.07;0.70;;;;;;;;;;5069300;28;20687;-66
2023/11/04 13:47:50;;;;;;;1.00;0.70;;;;;;;;;;5063090;28;20173;-67
2023/11/04 13:50:18;;;;;;;2.53;1.03;;;;;;;;;;5040608;28;20196;-67
2023/11/04 13:52:44;;;;;;;3.23;0.90;;;;;;;;;;5060507;28;20186;-67
2023/11/04 13:55:09;;;;;;;1.20;0.70;;;;;;;;;;5057621;28;20545;-68
2023/11/04 13:57:35;;;;;;;3.27;1.20;;;;;;;;;;5049258;28;20306;-66
2023/11/04 14:00:00;;;;;;;3.53;1.20;;;;;;;;;;5048655;28;20196;-68
2023/11/04 14:02:26;;;;;;;3.43;1.00;;;;;;;;;;5049658;28;20215;-68
2023/11/04 14:04:52;;;;;;;2.60;1.07;;;;;;;;;;5049173;28;20267;-65
2023/11/04 14:07:19;;;;;;;4.07;1.63;;;;;;;;;;5029849;28;20605;-64
2023/11/04 14:09:45;;;;;;;1.53;0.90;;;;;;;;;;5048504;28;20177;-65
2023/11/04 14:12:12;;;;;;;1.50;0.83;;;;;;;;;;5048418;28;20695;-67
2023/11/04 14:14:37;;;;;;;1.40;1.07;;;;;;;;;;5032537;28;20181;-66
2023/11/04 14:17:02;;;;;;;2.37;1.00;;;;;;;;;;5048087;28;20210;-66
2023/11/04 14:19:27;;;;;;;1.73;1.17;;;;;;;;;;5048602;28;20181;-66
2023/11/04 14:21:52;;;;;;;2.77;0.77;;;;;;;;;;5050929;28;20344;-67
2023/11/04 14:24:17;;;;;;;0.87;0.77;;;;;;;;;;5032075;28;20192;-65
2023/11/04 14:26:43;;;;;;;4.73;0.90;;;;;;;;;;5047499;28;21766;-66
2023/11/04 14:29:08;;;;;;;2.70;1.20;;;;;;;;;;5048876;28;20210;-65
2023/11/04 14:31:34;;;;;;;2.27;1.00;;;;;;;;;;5049326;28;20343;-67
2023/11/04 14:34:00;;;;;;;1.10;1.00;;;;;;;;;;5049244;28;20545;-66